Time;durP1;ratioP1;P1;durP2;ratioP2;P2;SDS_P1;SDS_P2;PMS_P1;PMS_P2;Temp;Humidity;BMP_temperature;BMP_pressure;BME280_temperature;BME280_humidity;BME280_pressure;Samples;Min_cycle;Max_cycle;Signal;HPM_P1;HPM_P2
2023/08/14 00:03:26;;;;;;;15.30;7.82;;;;;;;24.59;100.00;100820.09;20908590;28;20056;-70
2023/08/14 00:13:54;;;;;;;13.75;8.02;;;;;;;24.52;100.00;100814.06;20920378;28;20060;-70
2023/08/14 00:24:16;;;;;;;16.92;7.30;;;;;;;24.44;100.00;100809.91;20873444;28;20103;-70
2023/08/14 00:34:41;;;;;;;12.35;7.93;;;;;;;24.44;100.00;100805.41;20887023;28;20052;-70
2023/08/14 00:45:05;;;;;;;13.82;7.57;;;;;;;24.40;100.00;100798.38;20880068;28;20045;-71
2023/08/14 00:55:30;;;;;;;16.48;7.93;;;;;;;24.42;100.00;100793.78;20885977;28;20076;-70
2023/08/14 01:05:53;;;;;;;14.38;7.18;;;;;;;24.49;100.00;100795.28;20888382;28;20083;-71
2023/08/14 01:16:21;;;;;;;13.95;7.85;;;;;;;24.57;100.00;100785.06;20885915;28;20053;-70
2023/08/14 01:26:46;;;;;;;11.85;7.18;;;;;;;24.69;100.00;100774.69;20845426;28;20049;-70
2023/08/14 01:37:18;;;;;;;13.25;7.85;;;;;;;24.73;100.00;100774.50;20887355;28;20691;-71
2023/08/14 01:47:24;;;;;;;11.80;6.60;;;;;;;24.79;100.00;100778.75;20897653;28;20094;-70
2023/08/14 01:57:47;;;;;;;12.43;7.40;;;;;;;24.68;100.00;100775.66;20894095;28;20049;-71
2023/08/14 02:08:12;;;;;;;13.68;8.30;;;;;;;24.69;100.00;100772.84;20879307;28;20152;-70
2023/08/14 02:18:35;;;;;;;12.98;7.32;;;;;;;24.78;100.00;100774.31;20906799;28;20060;-70
2023/08/14 02:28:59;;;;;;;12.43;7.40;;;;;;;24.90;100.00;100763.00;20909396;28;20055;-71
2023/08/14 02:39:21;;;;;;;12.38;7.05;;;;;;;24.93;100.00;100762.88;20884280;28;20049;-70
2023/08/14 02:49:45;;;;;;;16.70;6.28;;;;;;;25.05;100.00;100769.56;20877882;28;20110;-70
2023/08/14 03:00:09;;;;;;;12.57;7.15;;;;;;;24.97;100.00;100767.19;20874377;28;20501;-71
2023/08/14 03:10:34;;;;;;;10.13;6.88;;;;;;;24.82;100.00;100779.50;20884235;28;20513;-70
2023/08/14 03:20:56;;;;;;;12.23;7.00;;;;;;;24.71;100.00;100780.91;20909033;28;20520;-71
2023/08/14 03:31:20;;;;;;;16.05;7.93;;;;;;;24.61;100.00;100789.38;20896013;28;20059;-70
2023/08/14 03:41:44;;;;;;;11.60;6.97;;;;;;;24.48;100.00;100798.94;20893659;28;20077;-70
2023/08/14 03:52:08;;;;;;;14.95;7.40;;;;;;;24.41;100.00;100805.53;20890475;28;20459;-70
2023/08/14 04:02:31;;;;;;;16.00;8.30;;;;;;;24.49;100.00;100802.50;20874915;28;20546;-70
2023/08/14 04:12:55;;;;;;;15.75;8.15;;;;;;;24.49;100.00;100806.09;20881990;28;21446;-70
2023/08/14 04:23:18;;;;;;;12.38;7.85;;;;;;;24.65;100.00;100821.66;20868454;28;20049;-70
2023/08/14 04:33:44;;;;;;;12.55;7.30;;;;;;;24.83;100.00;100823.59;20922120;28;20110;-70
2023/08/14 04:44:07;;;;;;;10.95;7.38;;;;;;;24.91;100.00;100822.38;20886159;28;20049;-70
2023/08/14 04:54:32;;;;;;;11.95;6.63;;;;;;;25.12;100.00;100841.31;20886212;28;20150;-70
2023/08/14 05:04:54;;;;;;;11.30;5.88;;;;;;;25.29;100.00;100845.03;20889383;28;20143;-70
2023/08/14 05:15:19;;;;;;;14.70;6.63;;;;;;;25.97;100.00;100846.47;20887653;28;20060;-71
2023/08/14 05:25:42;;;;;;;13.77;5.80;;;;;;;26.69;100.00;100852.03;20929083;28;20064;-70
2023/08/14 05:36:06;;;;;;;9.25;4.97;;;;;;;27.29;100.00;100864.34;20912623;28;20052;-70
2023/08/14 05:46:29;;;;;;;10.43;5.35;;;;;;;27.21;100.00;100868.41;20910324;28;20062;-70
2023/08/14 05:56:53;;;;;;;9.95;4.60;;;;;;;28.19;100.00;100874.94;20898101;28;20735;-70
2023/08/14 06:07:16;;;;;;;8.32;4.35;;;;;;;29.66;100.00;100871.72;20874103;28;20056;-71
2023/08/14 06:17:40;;;;;;;7.90;4.28;;;;;;;29.87;100.00;100883.97;20889784;28;20056;-70
2023/08/14 06:28:03;;;;;;;10.43;4.25;;;;;;;31.08;100.00;100875.19;20886533;28;20052;-71
2023/08/14 06:38:28;;;;;;;8.40;4.15;;;;;;;31.49;100.00;100879.66;20887127;28;20052;-71
2023/08/14 06:48:51;;;;;;;12.15;4.45;;;;;;;32.35;100.00;100880.81;20906108;28;20057;-70
2023/08/14 06:59:15;;;;;;;5.75;3.78;;;;;;;33.05;91.51;100884.63;20904520;28;20088;-70
2023/08/14 07:09:38;;;;;;;;;;;;;;;33.16;91.05;100892.00;20884382;28;20055;-72
2023/08/14 07:20:04;;;;;;;8.75;4.00;;;;;;;33.66;80.39;100896.34;20886921;28;19920;-71
2023/08/14 07:30:26;;;;;;;6.97;3.60;;;;;;;34.05;75.01;100908.78;20916608;28;20053;-71
2023/08/14 07:40:50;;;;;;;9.43;3.42;;;;;;;34.42;69.08;100905.81;20936055;28;20065;-71
2023/08/14 07:51:06;;;;;;;9.32;3.63;;;;;;;34.59;64.56;100906.16;20910143;28;20131;-71
2023/08/14 08:01:31;;;;;;;8.90;3.65;;;;;;;34.32;65.90;100913.94;20934867;28;20447;-71
2023/08/14 08:11:54;;;;;;;11.15;3.80;;;;;;;34.23;67.38;100920.16;20912442;28;20091;-71
2023/08/14 08:22:18;;;;;;;8.18;3.45;;;;;;;33.75;67.70;100922.16;20933541;28;20049;-71
2023/08/14 08:32:41;;;;;;;;;;;;;;;34.25;65.15;100919.03;20893286;28;20045;-71
2023/08/14 08:43:06;;;;;;;8.55;2.95;;;;;;;35.01;62.14;100922.81;20901216;28;20305;-72
2023/08/14 08:53:29;;;;;;;8.15;3.58;;;;;;;35.46;58.15;100924.44;20919406;28;20098;-71
2023/08/14 09:03:54;;;;;;;7.13;3.10;;;;;;;34.98;54.40;100929.47;20884202;28;20056;-73
2023/08/14 09:14:17;;;;;;;7.93;3.22;;;;;;;35.26;51.82;100922.53;20927685;28;20059;-73
2023/08/14 09:24:42;;;;;;;8.30;3.50;;;;;;;35.33;51.42;100922.88;20911815;28;20049;-74
2023/08/14 09:35:06;;;;;;;9.73;3.70;;;;;;;35.46;50.44;100926.31;20862337;28;20136;-74
2023/08/14 09:45:34;;;;;;;9.00;3.40;;;;;;;35.86;49.12;100926.50;20895028;28;20049;-74
2023/08/14 09:56:00;;;;;;;7.05;3.50;;;;;;;35.78;49.40;100934.53;20896503;28;20049;-75
2023/08/14 10:06:27;;;;;;;9.70;3.72;;;;;;;36.10;48.45;100939.97;20890423;28;20397;-74
2023/08/14 10:16:53;;;;;;;8.20;2.92;;;;;;;35.98;45.82;100947.41;20897032;28;20059;-75
2023/08/14 10:27:18;;;;;;;8.50;4.00;;;;;;;36.04;46.37;100946.03;20921781;28;20037;-74
2023/08/14 10:37:44;;;;;;;9.57;3.83;;;;;;;35.88;48.42;100938.25;20889906;28;20152;-75
2023/08/14 10:48:12;;;;;;;8.55;3.80;;;;;;;35.51;50.18;100952.38;20910855;28;20052;-73
2023/08/14 10:58:40;;;;;;;9.00;4.07;;;;;;;35.70;51.20;100942.59;20882650;28;20057;-74
2023/08/14 11:09:06;;;;;;;9.07;4.20;;;;;;;35.70;51.66;100934.34;20897748;28;20059;-73
2023/08/14 11:19:30;;;;;;;10.35;4.75;;;;;;;35.68;49.98;100939.06;20874851;28;20053;-73
2023/08/14 11:29:54;;;;;;;11.70;5.60;;;;;;;35.58;51.72;100929.91;20889583;28;20519;-74
2023/08/14 11:40:17;;;;;;;9.43;4.60;;;;;;;35.77;51.52;100924.56;20883870;28;20087;-74
2023/08/14 11:50:48;;;;;;;6.75;4.30;;;;;;;35.72;50.22;100908.47;20896997;28;20091;-74
2023/08/14 12:01:11;;;;;;;9.27;4.43;;;;;;;35.57;50.99;100931.78;20889596;28;20048;-74
2023/08/14 12:11:35;;;;;;;9.65;4.18;;;;;;;35.41;51.38;100909.34;20899467;28;20033;-74
2023/08/14 12:21:59;;;;;;;10.30;4.60;;;;;;;35.49;47.97;100926.94;20903448;28;20159;-74
2023/08/14 12:32:25;;;;;;;8.30;4.67;;;;;;;35.27;47.13;100917.91;20853857;28;20046;-73
2023/08/14 12:42:48;;;;;;;10.25;5.10;;;;;;;35.49;46.54;100913.19;20908378;28;20138;-73
2023/08/14 12:53:16;;;;;;;10.27;4.72;;;;;;;35.50;46.80;100903.09;20903571;28;20102;-73
2023/08/14 13:03:39;;;;;;;10.18;4.57;;;;;;;35.23;47.33;100905.44;20879816;28;20060;-73
2023/08/14 13:14:04;;;;;;;8.38;4.75;;;;;;;35.01;50.89;100900.88;20886180;28;20452;-74
2023/08/14 13:24:27;;;;;;;11.43;4.97;;;;;;;34.76;53.14;100902.06;20901056;28;20139;-73
2023/08/14 13:34:52;;;;;;;15.13;4.82;;;;;;;34.92;55.50;100904.41;20899583;28;20076;-74
2023/08/14 13:45:15;;;;;;;10.27;4.97;;;;;;;34.52;57.70;100899.47;20894009;28;20084;-74
2023/08/14 13:55:42;;;;;;;10.77;4.68;;;;;;;34.04;59.15;100911.63;20885983;28;20148;-73
2023/08/14 14:06:04;;;;;;;;;;;;;;;33.81;57.32;100910.72;20897324;28;20060;-74
2023/08/14 14:16:26;;;;;;;11.43;4.97;;;;;;;33.63;54.94;100913.88;20897279;28;19927;-74
2023/08/14 14:26:49;;;;;;;11.50;5.38;;;;;;;33.59;56.13;100903.28;20882519;28;20085;-74
2023/08/14 14:37:13;;;;;;;8.85;4.75;;;;;;;33.88;58.41;100901.00;20881905;28;20041;-74
2023/08/14 14:47:36;;;;;;;10.43;5.53;;;;;;;33.94;63.07;100900.50;20919779;28;20052;-74
2023/08/14 14:58:00;;;;;;;14.20;5.93;;;;;;;33.73;67.55;100900.38;20882846;28;20559;-74
2023/08/14 15:08:22;;;;;;;9.88;4.80;;;;;;;33.06;67.24;100900.06;20883209;28;20053;-74
2023/08/14 15:18:47;;;;;;;11.52;5.93;;;;;;;32.58;69.26;100898.22;20895129;28;20052;-74
2023/08/14 15:28:49;;;;;;;10.30;6.40;;;;;;;32.09;74.54;100904.53;20910414;28;20057;-73
2023/08/14 15:39:14;;;;;;;11.02;6.05;;;;;;;31.69;79.75;100908.34;20937666;28;20049;-73
2023/08/14 15:49:36;;;;;;;14.02;7.03;;;;;;;31.36;88.94;100917.84;20924760;28;20099;-74
2023/08/14 15:59:57;;;;;;;13.55;7.03;;;;;;;31.05;93.38;100926.38;20909535;28;20536;-74
2023/08/14 16:10:19;;;;;;;14.80;7.57;;;;;;;30.89;94.89;100926.47;20908878;28;20049;-74
2023/08/14 16:20:43;;;;;;;13.50;7.65;;;;;;;30.69;96.49;100930.50;20891740;28;20041;-74
2023/08/14 16:31:06;;;;;;;13.30;7.45;;;;;;;30.36;99.90;100929.94;20876453;28;20111;-73
2023/08/14 16:41:32;;;;;;;13.98;7.07;;;;;;;30.08;100.00;100930.78;20866039;28;20060;-73
2023/08/14 16:51:55;;;;;;;12.40;7.63;;;;;;;29.89;100.00;100935.59;20881057;28;20531;-73
2023/08/14 17:02:00;;;;;;;13.02;8.07;;;;;;;29.71;100.00;100946.66;20897627;28;20139;-73
2023/08/14 17:12:23;;;;;;;18.65;8.13;;;;;;;29.53;100.00;100953.22;20884038;28;20052;-73
2023/08/14 17:22:48;;;;;;;15.05;8.43;;;;;;;29.36;100.00;100958.78;20892643;28;20056;-73
2023/08/14 17:33:11;;;;;;;18.73;8.32;;;;;;;29.19;100.00;100961.59;20889251;28;20408;-73
2023/08/14 17:43:36;;;;;;;17.42;9.20;;;;;;;28.97;100.00;100961.97;20880521;28;20102;-73
2023/08/14 17:53:59;;;;;;;14.73;9.15;;;;;;;28.79;100.00;100969.34;20883343;28;20045;-74
2023/08/14 18:04:24;;;;;;;18.08;10.20;;;;;;;28.65;100.00;100977.34;20870214;28;20045;-74
2023/08/14 18:14:47;;;;;;;16.92;10.05;;;;;;;28.62;100.00;100991.09;20888689;28;20051;-73
2023/08/14 18:25:16;;;;;;;16.13;9.48;;;;;;;28.56;100.00;101002.31;20889696;28;20060;-73
2023/08/14 18:35:39;;;;;;;14.88;9.15;;;;;;;28.65;100.00;101018.13;20876253;28;20052;-73
2023/08/14 18:46:05;;;;;;;18.77;10.32;;;;;;;28.63;100.00;101032.75;20885127;28;20053;-73
2023/08/14 18:56:27;;;;;;;14.38;8.68;;;;;;;28.42;100.00;101030.22;20872638;28;20390;-72
2023/08/14 19:06:51;;;;;;;15.70;9.63;;;;;;;28.30;100.00;101044.47;20894805;28;20139;-73
2023/08/14 19:17:14;;;;;;;17.67;10.10;;;;;;;28.17;100.00;101045.19;20897012;28;20057;-73
2023/08/14 19:27:40;;;;;;;15.20;9.38;;;;;;;27.97;100.00;101052.53;20922758;28;20051;-73
2023/08/14 19:38:03;;;;;;;16.77;9.63;;;;;;;27.91;100.00;101050.13;20914435;28;20145;-73
2023/08/14 19:48:27;;;;;;;15.32;9.75;;;;;;;27.80;100.00;101047.09;20899557;28;20448;-74
2023/08/14 19:58:49;;;;;;;14.45;9.95;;;;;;;27.73;100.00;101046.53;20877312;28;20103;-73
2023/08/14 20:08:53;;;;;;;16.77;10.95;;;;;;;27.62;100.00;101054.34;20901004;28;20045;-74
2023/08/14 20:19:16;;;;;;;13.60;9.77;;;;;;;27.53;100.00;101046.66;20881543;28;20037;-74
2023/08/14 20:29:40;;;;;;;20.90;9.80;;;;;;;27.49;100.00;101045.03;20901097;28;20045;-73
2023/08/14 20:40:03;;;;;;;15.77;9.23;;;;;;;27.40;100.00;101036.47;20901268;28;20440;-74
2023/08/14 20:50:28;;;;;;;15.13;9.40;;;;;;;27.31;100.00;101026.94;20890905;28;20103;-74
2023/08/14 21:00:51;;;;;;;19.10;9.80;;;;;;;27.17;100.00;101024.94;20904392;28;20094;-74
2023/08/14 21:11:15;;;;;;;14.85;8.60;;;;;;;27.05;100.00;101013.78;20863607;28;20397;-74
2023/08/14 21:21:38;;;;;;;11.93;8.90;;;;;;;27.02;100.00;101009.41;20926431;28;20048;-74
2023/08/14 21:32:02;;;;;;;13.52;9.40;;;;;;;27.00;100.00;101008.59;20924327;28;20048;-74
2023/08/14 21:42:25;;;;;;;15.30;9.23;;;;;;;26.88;100.00;100996.50;20899168;28;20059;-73
2023/08/14 21:52:49;;;;;;;13.40;9.00;;;;;;;26.81;100.00;100994.13;20928974;28;20072;-75
2023/08/14 22:03:12;;;;;;;14.40;8.85;;;;;;;26.72;100.00;100989.16;20900414;28;20041;-73
2023/08/14 22:13:16;;;;;;;12.55;9.63;;;;;;;26.63;100.00;100979.66;20894676;28;20102;-73
2023/08/14 22:23:38;;;;;;;15.40;10.18;;;;;;;26.46;100.00;100982.25;20893403;28;20465;-74
2023/08/14 22:34:02;;;;;;;12.10;9.40;;;;;;;26.40;100.00;100967.19;20893073;28;20103;-74
2023/08/14 22:44:25;;;;;;;14.75;10.77;;;;;;;26.26;100.00;100953.38;20877461;28;20103;-74
2023/08/14 22:54:49;;;;;;;13.63;9.77;;;;;;;26.24;100.00;100946.28;20883234;28;20053;-74
2023/08/14 23:05:11;;;;;;;15.80;10.93;;;;;;;26.12;100.00;100940.47;20882479;28;20056;-74
2023/08/14 23:15:36;;;;;;;15.23;10.85;;;;;;;25.80;100.00;100949.16;20878180;28;20053;-74
2023/08/14 23:25:58;;;;;;;13.90;11.38;;;;;;;25.86;100.00;100948.03;20886821;28;20092;-74
2023/08/14 23:36:22;;;;;;;14.40;10.55;;;;;;;25.62;100.00;100947.25;20863020;28;20053;-73
2023/08/14 23:46:45;;;;;;;16.08;10.25;;;;;;;25.59;100.00;100950.13;20889283;28;20053;-73
2023/08/14 23:57:09;;;;;;;15.27;10.82;;;;;;;25.53;100.00;100942.25;20895104;28;20428;-74
